Time;durP1;ratioP1;P1;durP2;ratioP2;P2;SDS_P1;SDS_P2;PMS_P1;PMS_P2;Temp;Humidity;BMP_temperature;BMP_pressure;BME280_temperature;BME280_humidity;BME280_pressure;Samples;Min_cycle;Max_cycle;Signal;HPM_P1;HPM_P2
2023/03/17 00:01:54;;;;;;;9.50;7.05;;;;;;;;;;4996867;28;20062;-60
2023/03/17 00:04:23;;;;;;;10.93;6.82;;;;;;;;;;4996705;28;20082;-60
2023/03/17 00:06:51;;;;;;;11.70;6.78;;;;;;;;;;4996652;28;20046;-60
2023/03/17 00:09:20;;;;;;;10.35;6.60;;;;;;;;;;4996829;28;20046;-60
2023/03/17 00:11:47;;;;;;;8.95;6.95;;;;;;;;;;4996604;28;20046;-60
2023/03/17 00:14:15;;;;;;;11.00;6.55;;;;;;;;;;4996670;28;20066;-59
2023/03/17 00:16:44;;;;;;;9.65;6.93;;;;;;;;;;4996604;28;20046;-59
2023/03/17 00:19:32;;;;;;;9.43;6.47;;;;;;;;;;4996915;28;20058;-59
2023/03/17 00:22:00;;;;;;;10.63;6.82;;;;;;;;;;4996441;28;20133;-59
2023/03/17 00:24:28;;;;;;;9.10;6.43;;;;;;;;;;4979074;28;20043;-59
2023/03/17 00:26:56;;;;;;;8.90;6.55;;;;;;;;;;4996417;28;20042;-59
2023/03/17 00:29:24;;;;;;;10.27;6.68;;;;;;;;;;4978966;28;20089;-59
2023/03/17 00:31:52;;;;;;;9.35;6.47;;;;;;;;;;4978981;28;20050;-59
2023/03/17 00:34:22;;;;;;;8.70;5.97;;;;;;;;;;4996423;28;20053;-59
2023/03/17 00:36:50;;;;;;;9.35;6.10;;;;;;;;;;4978882;28;20053;-59
2023/03/17 00:39:18;;;;;;;9.15;6.18;;;;;;;;;;4978913;28;20488;-59
2023/03/17 00:41:46;;;;;;;7.22;5.55;;;;;;;;;;4978671;28;20046;-59
2023/03/17 00:44:17;;;;;;;7.72;6.25;;;;;;;;;;4979011;28;20047;-59
2023/03/17 00:46:45;;;;;;;8.52;5.70;;;;;;;;;;4978792;28;20046;-59
2023/03/17 00:49:17;;;;;;;7.93;5.97;;;;;;;;;;4978548;28;20065;-59
2023/03/17 00:51:45;;;;;;;10.32;5.75;;;;;;;;;;4978974;28;20087;-59
2023/03/17 00:54:14;;;;;;;8.05;6.03;;;;;;;;;;4978594;28;20050;-59
2023/03/17 00:56:42;;;;;;;8.75;5.85;;;;;;;;;;4978621;28;20113;-59
2023/03/17 00:59:16;;;;;;;8.23;6.32;;;;;;;;;;4978468;28;20496;-59
2023/03/17 01:01:46;;;;;;;7.78;5.43;;;;;;;;;;4995902;28;20073;-59
2023/03/17 01:04:14;;;;;;;7.50;5.35;;;;;;;;;;4995786;28;20493;-59
2023/03/17 01:06:42;;;;;;;9.68;5.70;;;;;;;;;;4978611;28;20046;-60
2023/03/17 01:09:13;;;;;;;9.50;5.85;;;;;;;;;;4978283;28;20042;-59
2023/03/17 01:11:40;;;;;;;8.60;5.97;;;;;;;;;;4978013;28;20137;-59
2023/03/17 01:14:09;;;;;;;9.20;5.57;;;;;;;;;;4977961;28;20042;-59
2023/03/17 01:16:37;;;;;;;9.48;6.07;;;;;;;;;;4967209;28;20145;-59
2023/03/17 01:19:05;;;;;;;14.05;7.45;;;;;;;;;;4991445;28;20042;-60
2023/03/17 01:21:32;;;;;;;13.32;7.70;;;;;;;;;;4995353;28;20059;-59
2023/03/17 01:24:00;;;;;;;13.68;7.45;;;;;;;;;;4995477;28;20485;-59
2023/03/17 01:26:28;;;;;;;14.40;7.97;;;;;;;;;;4977434;28;20053;-60
2023/03/17 01:28:55;;;;;;;11.32;6.97;;;;;;;;;;4995240;28;20100;-59
2023/03/17 01:31:23;;;;;;;14.75;7.15;;;;;;;;;;4976524;28;20054;-59
2023/03/17 01:33:51;;;;;;;12.52;7.30;;;;;;;;;;4995175;28;20042;-59
2023/03/17 01:36:19;;;;;;;11.15;7.55;;;;;;;;;;4995246;28;20438;-59
2023/03/17 01:38:48;;;;;;;9.77;6.63;;;;;;;;;;4974466;28;20053;-59
2023/03/17 01:41:16;;;;;;;10.90;6.85;;;;;;;;;;4975301;28;20046;-60
2023/03/17 01:43:44;;;;;;;9.57;6.40;;;;;;;;;;4994933;28;20046;-59
2023/03/17 01:46:14;;;;;;;10.48;6.55;;;;;;;;;;4974737;28;20127;-59
2023/03/17 01:48:44;;;;;;;8.80;5.88;;;;;;;;;;4974622;28;20042;-59
2023/03/17 01:51:15;;;;;;;9.40;5.72;;;;;;;;;;4974569;28;20049;-60
2023/03/17 01:53:44;;;;;;;8.05;5.47;;;;;;;;;;4974349;28;20101;-59
2023/03/17 01:56:11;;;;;;;9.98;6.35;;;;;;;;;;4974608;28;20062;-59
2023/03/17 01:58:39;;;;;;;8.90;6.20;;;;;;;;;;4974159;28;20142;-59
2023/03/17 02:01:07;;;;;;;8.05;6.15;;;;;;;;;;4974066;28;20049;-59
2023/03/17 02:03:35;;;;;;;8.45;5.47;;;;;;;;;;4974098;28;20039;-59
2023/03/17 02:06:03;;;;;;;9.18;6.07;;;;;;;;;;4973936;28;20416;-59
2023/03/17 02:08:31;;;;;;;8.25;5.22;;;;;;;;;;4976938;28;20085;-60
2023/03/17 02:11:03;;;;;;;7.40;5.40;;;;;;;;;;4994478;28;20089;-59
2023/03/17 02:13:32;;;;;;;7.15;5.00;;;;;;;;;;4994575;28;20125;-59
2023/03/17 02:16:00;;;;;;;7.00;5.13;;;;;;;;;;4994601;28;20092;-59
2023/03/17 02:18:27;;;;;;;7.57;5.38;;;;;;;;;;4976599;28;20051;-59
2023/03/17 02:21:14;;;;;;;9.10;5.85;;;;;;;;;;4994137;28;20133;-59
2023/03/17 02:23:41;;;;;;;6.85;5.07;;;;;;;;;;4973152;28;20054;-59
2023/03/17 02:26:10;;;;;;;7.80;5.47;;;;;;;;;;4990874;28;20058;-59
2023/03/17 02:28:38;;;;;;;7.38;5.38;;;;;;;;;;4973556;28;20464;-59
2023/03/17 02:31:07;;;;;;;7.88;5.25;;;;;;;;;;4973813;28;20047;-59
2023/03/17 02:33:34;;;;;;;6.97;5.05;;;;;;;;;;4973621;28;20046;-60
2023/03/17 02:36:02;;;;;;;7.53;5.25;;;;;;;;;;4989794;28;20038;-59
2023/03/17 02:38:30;;;;;;;7.53;5.35;;;;;;;;;;4994148;28;20054;-60
2023/03/17 02:41:00;;;;;;;7.38;4.97;;;;;;;;;;4994305;28;20100;-59
2023/03/17 02:43:27;;;;;;;8.35;5.47;;;;;;;;;;4959942;28;20571;-59
2023/03/17 02:45:55;;;;;;;6.78;5.18;;;;;;;;;;4993760;28;20042;-59
2023/03/17 02:48:23;;;;;;;8.70;5.70;;;;;;;;;;4993651;28;20512;-61
2023/03/17 02:50:50;;;;;;;9.50;6.40;;;;;;;;;;4993821;28;20042;-59
2023/03/17 02:53:18;;;;;;;7.35;5.78;;;;;;;;;;4993695;28;20050;-59
2023/03/17 02:55:45;;;;;;;8.63;6.00;;;;;;;;;;4993749;28;20138;-59
2023/03/17 02:58:13;;;;;;;7.85;5.82;;;;;;;;;;4993684;28;20078;-59
2023/03/17 03:00:40;;;;;;;9.90;7.20;;;;;;;;;;4993603;28;20109;-60
2023/03/17 03:03:08;;;;;;;11.90;6.22;;;;;;;;;;4993570;28;20042;-60
2023/03/17 03:05:35;;;;;;;11.27;6.03;;;;;;;;;;4993286;28;20039;-59
2023/03/17 03:08:03;;;;;;;9.32;6.13;;;;;;;;;;4993583;28;20034;-59
2023/03/17 03:10:31;;;;;;;9.02;5.82;;;;;;;;;;4993541;28;20057;-59
2023/03/17 03:12:58;;;;;;;8.70;6.50;;;;;;;;;;4993278;28;20043;-59
2023/03/17 03:15:26;;;;;;;9.07;6.00;;;;;;;;;;4993470;28;20121;-59
2023/03/17 03:17:53;;;;;;;8.27;5.80;;;;;;;;;;4993305;28;20085;-59
2023/03/17 03:20:21;;;;;;;8.80;5.80;;;;;;;;;;4992969;28;20062;-59
2023/03/17 03:22:48;;;;;;;7.78;5.85;;;;;;;;;;4993392;28;20504;-59
2023/03/17 03:25:16;;;;;;;9.13;6.57;;;;;;;;;;4993156;28;20505;-59
2023/03/17 03:27:44;;;;;;;9.25;6.22;;;;;;;;;;4993323;28;20043;-59
2023/03/17 03:30:12;;;;;;;9.38;6.00;;;;;;;;;;4993073;28;20046;-59
2023/03/17 03:32:39;;;;;;;8.00;5.57;;;;;;;;;;4993400;28;20046;-59
2023/03/17 03:35:07;;;;;;;8.85;6.18;;;;;;;;;;4992400;28;20057;-59
2023/03/17 03:37:34;;;;;;;8.52;5.45;;;;;;;;;;4985612;28;20559;-60
2023/03/17 03:40:02;;;;;;;8.82;5.50;;;;;;;;;;4993013;28;20481;-59
2023/03/17 03:42:30;;;;;;;8.50;5.90;;;;;;;;;;4993155;28;20046;-59
2023/03/17 03:44:57;;;;;;;10.25;5.90;;;;;;;;;;4993034;28;20477;-60
2023/03/17 03:47:25;;;;;;;8.00;5.63;;;;;;;;;;4993042;28;20515;-58
2023/03/17 03:49:53;;;;;;;7.97;5.82;;;;;;;;;;4993064;28;20046;-58
2023/03/17 03:52:20;;;;;;;8.05;5.57;;;;;;;;;;4993168;28;20046;-58
2023/03/17 03:54:47;;;;;;;6.88;5.40;;;;;;;;;;4993093;28;20046;-58
2023/03/17 03:57:15;;;;;;;8.95;5.70;;;;;;;;;;4993233;28;20443;-57
2023/03/17 03:59:42;;;;;;;9.73;6.38;;;;;;;;;;4993204;28;20046;-60
2023/03/17 04:02:10;;;;;;;8.30;5.80;;;;;;;;;;4992960;28;20096;-58
2023/03/17 04:04:38;;;;;;;7.85;6.30;;;;;;;;;;4992852;28;20451;-58
2023/03/17 04:07:06;;;;;;;7.93;5.65;;;;;;;;;;4992973;28;20081;-58
2023/03/17 04:09:34;;;;;;;8.07;6.18;;;;;;;;;;4964211;28;20409;-58
2023/03/17 04:12:02;;;;;;;8.70;6.05;;;;;;;;;;4988462;28;20038;-58
2023/03/17 04:14:29;;;;;;;10.27;6.78;;;;;;;;;;4992638;28;20501;-58
2023/03/17 04:16:57;;;;;;;7.72;5.68;;;;;;;;;;4992759;28;20098;-58
2023/03/17 04:19:24;;;;;;;9.82;7.25;;;;;;;;;;4992514;28;20100;-58
2023/03/17 04:21:52;;;;;;;9.75;6.18;;;;;;;;;;4992826;28;20054;-58
2023/03/17 04:24:21;;;;;;;8.48;6.20;;;;;;;;;;4992748;28;20046;-58
2023/03/17 04:26:48;;;;;;;8.55;6.28;;;;;;;;;;4992339;28;20050;-60
2023/03/17 04:29:16;;;;;;;9.70;6.28;;;;;;;;;;4970779;28;20062;-57
2023/03/17 04:31:43;;;;;;;8.75;6.20;;;;;;;;;;4973229;28;20047;-59
2023/03/17 04:34:15;;;;;;;9.63;6.70;;;;;;;;;;4972984;28;20113;-59
2023/03/17 04:36:43;;;;;;;10.02;6.30;;;;;;;;;;4973151;28;20050;-59
2023/03/17 04:39:10;;;;;;;10.20;6.00;;;;;;;;;;4973118;28;20058;-58
2023/03/17 04:41:38;;;;;;;7.65;6.18;;;;;;;;;;4973167;28;20051;-59
2023/03/17 04:44:06;;;;;;;10.35;6.38;;;;;;;;;;4973225;28;20069;-59
2023/03/17 04:46:34;;;;;;;9.77;6.43;;;;;;;;;;4975491;28;20043;-59
2023/03/17 04:49:02;;;;;;;8.50;6.50;;;;;;;;;;4976696;28;20089;-58
2023/03/17 04:51:30;;;;;;;8.50;5.72;;;;;;;;;;4989103;28;20042;-59
2023/03/17 04:53:57;;;;;;;9.63;6.28;;;;;;;;;;4998125;28;20485;-59
2023/03/17 04:56:25;;;;;;;8.52;6.38;;;;;;;;;;5015696;28;20046;-59
2023/03/17 04:58:53;;;;;;;8.65;6.57;;;;;;;;;;5015555;28;20042;-59
2023/03/17 05:01:21;;;;;;;12.00;6.85;;;;;;;;;;5015498;28;20668;-59
2023/03/17 05:03:49;;;;;;;10.98;7.32;;;;;;;;;;5015370;28;20474;-59
2023/03/17 05:06:16;;;;;;;9.30;6.72;;;;;;;;;;5015390;28;20133;-59
2023/03/17 05:08:44;;;;;;;10.35;7.65;;;;;;;;;;5015326;28;20046;-59
2023/03/17 05:11:12;;;;;;;10.25;7.65;;;;;;;;;;5015299;28;20046;-59
2023/03/17 05:13:40;;;;;;;11.05;8.05;;;;;;;;;;5015314;28;20103;-59
2023/03/17 05:16:08;;;;;;;12.55;7.95;;;;;;;;;;5015269;28;20140;-59
2023/03/17 05:18:36;;;;;;;11.07;8.02;;;;;;;;;;5015347;28;20076;-59
2023/03/17 05:21:05;;;;;;;10.52;8.02;;;;;;;;;;4997684;28;20049;-59
2023/03/17 05:23:33;;;;;;;12.43;8.38;;;;;;;;;;5015113;28;20050;-59
2023/03/17 05:26:00;;;;;;;12.32;8.45;;;;;;;;;;5014832;28;20053;-59
2023/03/17 05:28:28;;;;;;;12.07;7.57;;;;;;;;;;5014867;28;20034;-59
2023/03/17 05:30:56;;;;;;;13.20;8.32;;;;;;;;;;5014766;28;20492;-59
2023/03/17 05:33:24;;;;;;;12.25;8.02;;;;;;;;;;5014846;28;20046;-59
2023/03/17 05:35:52;;;;;;;14.27;8.75;;;;;;;;;;5012871;28;20111;-59
2023/03/17 05:38:20;;;;;;;13.02;8.52;;;;;;;;;;5014247;28;20496;-60
2023/03/17 05:40:50;;;;;;;13.35;9.48;;;;;;;;;;5014291;28;20054;-59
2023/03/17 05:43:17;;;;;;;11.48;8.70;;;;;;;;;;5014067;28;20126;-59
2023/03/17 05:45:46;;;;;;;11.40;8.43;;;;;;;;;;5014306;28;20557;-58
2023/03/17 05:48:13;;;;;;;12.90;8.95;;;;;;;;;;5014436;28;20136;-59
2023/03/17 05:50:41;;;;;;;16.38;9.65;;;;;;;;;;4996738;28;20092;-59
2023/03/17 05:53:09;;;;;;;13.75;8.45;;;;;;;;;;5014414;28;20488;-59
2023/03/17 05:55:37;;;;;;;13.00;8.88;;;;;;;;;;5014582;28;20042;-59
2023/03/17 05:58:05;;;;;;;12.65;7.60;;;;;;;;;;5013648;28;20408;-59
2023/03/17 06:00:32;;;;;;;11.27;8.18;;;;;;;;;;5012562;28;20042;-59
2023/03/17 06:03:01;;;;;;;27.27;20.35;;;;;;;;;;5014277;28;20051;-59
2023/03/17 06:05:28;;;;;;;18.88;13.00;;;;;;;;;;5014024;28;20038;-59
2023/03/17 06:07:56;;;;;;;25.95;16.95;;;;;;;;;;5014229;28;20108;-59
2023/03/17 06:10:24;;;;;;;19.08;11.30;;;;;;;;;;5014176;28;20470;-59
2023/03/17 06:12:51;;;;;;;17.45;13.10;;;;;;;;;;5014416;28;20092;-59
2023/03/17 06:15:19;;;;;;;11.07;7.60;;;;;;;;;;5014129;28;20077;-59
2023/03/17 06:17:47;;;;;;;10.40;7.30;;;;;;;;;;5014295;28;20377;-59
2023/03/17 06:20:14;;;;;;;17.13;10.95;;;;;;;;;;5014149;28;20046;-59
2023/03/17 06:22:42;;;;;;;25.33;19.48;;;;;;;;;;5013961;28;20042;-59
2023/03/17 06:25:26;;;;;;;18.67;13.88;;;;;;;;;;5013936;28;20045;-60
2023/03/17 06:27:55;;;;;;;17.25;13.93;;;;;;;;;;5013886;28;20045;-58
2023/03/17 06:30:22;;;;;;;17.45;13.73;;;;;;;;;;5013869;28;20041;-58
2023/03/17 06:32:49;;;;;;;22.27;15.98;;;;;;;;;;4996100;28;20406;-59
2023/03/17 06:35:17;;;;;;;11.48;9.40;;;;;;;;;;5013818;28;20038;-59
2023/03/17 06:37:45;;;;;;;15.18;12.10;;;;;;;;;;5013712;28;20072;-59
2023/03/17 06:40:13;;;;;;;12.98;9.48;;;;;;;;;;5013685;28;20041;-58
2023/03/17 06:42:41;;;;;;;15.10;10.70;;;;;;;;;;5013887;28;20049;-58
2023/03/17 06:45:09;;;;;;;13.75;9.95;;;;;;;;;;5013648;28;20038;-59
2023/03/17 06:47:37;;;;;;;14.25;9.30;;;;;;;;;;5013755;28;20100;-59
2023/03/17 06:50:05;;;;;;;12.57;8.75;;;;;;;;;;5013858;28;20074;-59
2023/03/17 06:52:32;;;;;;;10.90;7.50;;;;;;;;;;5013428;28;20061;-58
2023/03/17 06:55:00;;;;;;;9.75;7.57;;;;;;;;;;5013387;28;20047;-59
2023/03/17 06:57:27;;;;;;;9.07;6.25;;;;;;;;;;5013388;28;20420;-58
2023/03/17 06:59:55;;;;;;;10.10;6.82;;;;;;;;;;4996010;28;20088;-60
2023/03/17 07:02:23;;;;;;;8.32;6.35;;;;;;;;;;5013325;28;20073;-58
2023/03/17 07:04:50;;;;;;;9.93;5.60;;;;;;;;;;5013188;28;20397;-58
2023/03/17 07:07:19;;;;;;;7.45;5.68;;;;;;;;;;5013442;28;20037;-58
2023/03/17 07:09:47;;;;;;;9.48;6.22;;;;;;;;;;5012989;28;20401;-58
2023/03/17 07:12:14;;;;;;;8.65;5.78;;;;;;;;;;5013070;28;20042;-58
2023/03/17 07:14:42;;;;;;;8.35;5.88;;;;;;;;;;5013112;28;20072;-58
2023/03/17 07:17:11;;;;;;;8.55;6.05;;;;;;;;;;5013057;28;20488;-59
2023/03/17 07:19:39;;;;;;;9.30;6.45;;;;;;;;;;5012939;28;20046;-59
2023/03/17 07:22:07;;;;;;;12.38;7.10;;;;;;;;;;5012937;28;20048;-59
2023/03/17 07:24:35;;;;;;;8.40;6.03;;;;;;;;;;5012986;28;20049;-60
2023/03/17 07:27:02;;;;;;;9.95;6.97;;;;;;;;;;5012780;28;20388;-59
2023/03/17 07:29:31;;;;;;;10.20;6.28;;;;;;;;;;5012699;28;20069;-60
2023/03/17 07:31:58;;;;;;;8.93;6.28;;;;;;;;;;4995393;28;20092;-60
2023/03/17 07:34:27;;;;;;;9.02;5.72;;;;;;;;;;5012929;28;20505;-59
2023/03/17 07:36:54;;;;;;;9.05;5.63;;;;;;;;;;5012983;28;20045;-60
2023/03/17 07:39:22;;;;;;;8.93;5.80;;;;;;;;;;5012980;28;20037;-60
2023/03/17 07:41:53;;;;;;;9.02;5.30;;;;;;;;;;5012884;28;20049;-60
2023/03/17 07:44:22;;;;;;;8.38;6.20;;;;;;;;;;5013090;28;20065;-60
2023/03/17 07:46:50;;;;;;;7.65;5.50;;;;;;;;;;5012822;28;20046;-59
2023/03/17 07:49:18;;;;;;;8.10;5.80;;;;;;;;;;4995433;28;20522;-60
2023/03/17 07:52:04;;;;;;;9.07;5.63;;;;;;;;;;4998512;28;20034;-59
2023/03/17 07:54:32;;;;;;;9.65;5.57;;;;;;;;;;4979164;28;20511;-60
2023/03/17 07:56:59;;;;;;;8.18;5.40;;;;;;;;;;4995342;28;20050;-60
2023/03/17 07:59:27;;;;;;;9.68;5.90;;;;;;;;;;4995220;28;20061;-58
2023/03/17 08:01:56;;;;;;;9.00;5.07;;;;;;;;;;5012557;28;20034;-59
2023/03/17 08:04:25;;;;;;;8.30;5.32;;;;;;;;;;5012707;28;20514;-59
2023/03/17 08:06:53;;;;;;;9.80;5.75;;;;;;;;;;5012662;28;20041;-60
2023/03/17 08:09:21;;;;;;;10.90;5.72;;;;;;;;;;5012538;28;20400;-60
2023/03/17 08:11:48;;;;;;;10.60;6.32;;;;;;;;;;5012408;28;20160;-60
2023/03/17 08:14:16;;;;;;;11.23;6.20;;;;;;;;;;5012546;28;20403;-60
2023/03/17 08:16:43;;;;;;;6.70;5.32;;;;;;;;;;5012535;28;20053;-59
2023/03/17 08:19:11;;;;;;;6.85;4.65;;;;;;;;;;5012494;28;20070;-60
2023/03/17 08:21:38;;;;;;;7.22;5.43;;;;;;;;;;5015010;28;20053;-60
2023/03/17 08:24:06;;;;;;;6.72;4.80;;;;;;;;;;5016387;28;20050;-60
2023/03/17 08:26:34;;;;;;;8.13;5.00;;;;;;;;;;5016376;28;20077;-59
2023/03/17 08:29:01;;;;;;;7.25;5.43;;;;;;;;;;5015735;28;20092;-58
2023/03/17 08:31:29;;;;;;;9.95;5.80;;;;;;;;;;5016253;28;20053;-60
2023/03/17 08:33:57;;;;;;;7.47;5.50;;;;;;;;;;4997624;28;20526;-60
2023/03/17 08:36:25;;;;;;;10.35;5.68;;;;;;;;;;5016091;28;20044;-60
2023/03/17 08:38:52;;;;;;;7.85;4.95;;;;;;;;;;5016450;28;20235;-59
2023/03/17 08:41:22;;;;;;;8.50;5.10;;;;;;;;;;5015990;28;20084;-59
2023/03/17 08:43:50;;;;;;;8.88;4.88;;;;;;;;;;5016019;28;20038;-60
2023/03/17 08:46:21;;;;;;;9.52;6.22;;;;;;;;;;5016054;28;20053;-60
2023/03/17 08:48:50;;;;;;;8.32;5.55;;;;;;;;;;5015780;28;20052;-60
2023/03/17 08:51:18;;;;;;;9.32;6.20;;;;;;;;;;5015845;28;20045;-60
2023/03/17 08:53:50;;;;;;;10.23;5.70;;;;;;;;;;5015671;28;20042;-60
2023/03/17 08:56:18;;;;;;;9.10;4.93;;;;;;;;;;5015553;28;20133;-60
2023/03/17 08:58:45;;;;;;;8.00;5.32;;;;;;;;;;5015599;28;20121;-60
2023/03/17 09:01:14;;;;;;;8.20;5.70;;;;;;;;;;5015691;28;20038;-60
2023/03/17 09:03:42;;;;;;;10.38;5.72;;;;;;;;;;5015772;28;20479;-60
2023/03/17 09:06:11;;;;;;;8.93;5.80;;;;;;;;;;5015285;28;20492;-60
2023/03/17 09:08:43;;;;;;;8.30;5.65;;;;;;;;;;4997824;28;20082;-60
2023/03/17 09:11:12;;;;;;;7.72;5.50;;;;;;;;;;5015343;28;20049;-60
2023/03/17 09:13:40;;;;;;;9.50;5.28;;;;;;;;;;5015285;28;20112;-59
2023/03/17 09:16:08;;;;;;;7.88;5.30;;;;;;;;;;5015360;28;20160;-59
2023/03/17 09:18:36;;;;;;;6.00;4.55;;;;;;;;;;5015086;28;20092;-59
2023/03/17 09:21:04;;;;;;;8.27;5.68;;;;;;;;;;5014857;28;20052;-59
2023/03/17 09:23:32;;;;;;;8.15;5.30;;;;;;;;;;5014984;28;20125;-59
2023/03/17 09:26:01;;;;;;;11.30;7.18;;;;;;;;;;5014936;28;20041;-59
2023/03/17 09:28:28;;;;;;;12.52;6.50;;;;;;;;;;5014881;28;20136;-59
2023/03/17 09:31:00;;;;;;;12.30;5.50;;;;;;;;;;5014920;28;20077;-59
2023/03/17 09:33:27;;;;;;;7.95;5.50;;;;;;;;;;5013837;28;20052;-59
2023/03/17 09:35:58;;;;;;;7.68;4.97;;;;;;;;;;5015053;28;20443;-58
2023/03/17 09:38:26;;;;;;;7.80;5.38;;;;;;;;;;5014932;28;20057;-58
2023/03/17 09:40:58;;;;;;;6.63;4.72;;;;;;;;;;5015268;28;20046;-58
2023/03/17 09:43:36;;;;;;;6.60;4.90;;;;;;;;;;5014868;28;20045;-59
2023/03/17 09:46:23;;;;;;;6.68;5.00;;;;;;;;;;5015088;28;20084;-60
2023/03/17 09:49:06;;;;;;;11.65;4.97;;;;;;;;;;5014193;28;20779;-59
2023/03/17 09:51:34;;;;;;;11.60;5.35;;;;;;;;;;5014656;28;20508;-60
2023/03/17 09:54:03;;;;;;;6.10;4.75;;;;;;;;;;5014062;28;20096;-60
2023/03/17 09:56:32;;;;;;;7.80;5.20;;;;;;;;;;5008210;28;20046;-64
2023/03/17 09:59:02;;;;;;;8.25;5.60;;;;;;;;;;5005285;28;20089;-64
2023/03/17 10:01:31;;;;;;;8.05;4.85;;;;;;;;;;4994281;28;20060;-64
2023/03/17 10:03:58;;;;;;;8.45;5.30;;;;;;;;;;4977181;28;20046;-63
2023/03/17 10:06:30;;;;;;;8.18;5.00;;;;;;;;;;4976803;28;20050;-63
2023/03/17 10:09:13;;;;;;;6.97;5.25;;;;;;;;;;4994699;28;20058;-63
2023/03/17 10:11:42;;;;;;;9.68;6.20;;;;;;;;;;4994565;28;20050;-63
2023/03/17 10:14:29;;;;;;;10.35;6.13;;;;;;;;;;4994582;28;20038;-63
2023/03/17 10:17:02;;;;;;;8.68;5.80;;;;;;;;;;4994406;28;20046;-63
2023/03/17 10:19:34;;;;;;;10.48;6.35;;;;;;;;;;4994704;28;20052;-64
2023/03/17 10:22:25;;;;;;;9.73;5.50;;;;;;;;;;4994220;28;20456;-62
2023/03/17 10:24:55;;;;;;;12.57;5.90;;;;;;;;;;4987107;28;20137;-63
2023/03/17 10:27:23;;;;;;;10.90;7.60;;;;;;;;;;4994179;28;20050;-62
2023/03/17 10:29:50;;;;;;;10.95;6.40;;;;;;;;;;4994224;28;20050;-63
2023/03/17 10:32:18;;;;;;;10.50;7.85;;;;;;;;;;4994009;28;20054;-63
2023/03/17 10:34:46;;;;;;;13.25;8.20;;;;;;;;;;4994056;28;20049;-63
2023/03/17 10:37:17;;;;;;;10.30;7.68;;;;;;;;;;4994398;28;20077;-63
2023/03/17 10:39:48;;;;;;;10.35;7.65;;;;;;;;;;4994111;28;20062;-63
2023/03/17 10:42:25;;;;;;;14.00;8.50;;;;;;;;;;4994011;28;20046;-64
2023/03/17 10:44:55;;;;;;;9.93;7.40;;;;;;;;;;4993718;28;20053;-63
2023/03/17 10:47:30;;;;;;;13.68;7.43;;;;;;;;;;4993946;28;20338;-63
2023/03/17 10:49:59;;;;;;;10.77;7.43;;;;;;;;;;4994384;28;20046;-63
2023/03/17 10:52:29;;;;;;;13.27;8.57;;;;;;;;;;4994176;28;20501;-64
2023/03/17 10:55:00;;;;;;;13.93;8.63;;;;;;;;;;4994074;28;20046;-63
2023/03/17 10:57:28;;;;;;;12.40;8.60;;;;;;;;;;4993697;28;20070;-61
2023/03/17 10:59:56;;;;;;;12.63;8.18;;;;;;;;;;4993707;28;20093;-62
2023/03/17 11:02:34;;;;;;;12.95;7.68;;;;;;;;;;4993839;28;20074;-62
2023/03/17 11:05:08;;;;;;;13.10;8.20;;;;;;;;;;4993718;28;20038;-62
2023/03/17 11:07:37;;;;;;;12.85;8.05;;;;;;;;;;4994126;28;20053;-62
2023/03/17 11:10:15;;;;;;;12.82;7.72;;;;;;;;;;4993891;28;20458;-62
2023/03/17 11:12:43;;;;;;;15.50;7.65;;;;;;;;;;4993564;28;20117;-62
2023/03/17 11:15:15;;;;;;;11.75;6.78;;;;;;;;;;4993802;28;20112;-62
2023/03/17 11:17:46;;;;;;;13.68;7.55;;;;;;;;;;5008782;28;20137;-62
2023/03/17 11:20:20;;;;;;;10.77;7.32;;;;;;;;;;4993398;28;20051;-62
2023/03/17 11:22:56;;;;;;;11.07;7.40;;;;;;;;;;4993422;28;20077;-62
2023/03/17 11:25:24;;;;;;;9.77;6.38;;;;;;;;;;4993534;28;20174;-63
2023/03/17 11:27:56;;;;;;;9.60;7.30;;;;;;;;;;4993224;28;20042;-63
2023/03/17 11:30:31;;;;;;;11.38;7.35;;;;;;;;;;4993389;28;20050;-63
2023/03/17 11:32:59;;;;;;;11.48;7.53;;;;;;;;;;4993446;28;20046;-63
2023/03/17 11:35:33;;;;;;;12.68;7.75;;;;;;;;;;4993367;28;20062;-62
2023/03/17 11:38:09;;;;;;;10.82;6.85;;;;;;;;;;4993220;28;20488;-62
2023/03/17 11:40:40;;;;;;;7.80;6.13;;;;;;;;;;4993290;28;20039;-62
2023/03/17 11:43:27;;;;;;;10.35;7.05;;;;;;;;;;4993561;28;20137;-62
2023/03/17 11:46:07;;;;;;;10.18;7.05;;;;;;;;;;4993212;28;20058;-62
2023/03/17 11:48:54;;;;;;;10.63;7.47;;;;;;;;;;4993441;28;20393;-62
2023/03/17 11:51:21;;;;;;;9.73;6.97;;;;;;;;;;4993064;28;20389;-62
2023/03/17 11:53:58;;;;;;;14.02;7.18;;;;;;;;;;4975596;28;20105;-62
2023/03/17 11:56:29;;;;;;;11.30;7.93;;;;;;;;;;4995399;28;20049;-63
2023/03/17 11:59:02;;;;;;;18.17;7.70;;;;;;;;;;4996997;28;20058;-63
2023/03/17 12:01:35;;;;;;;12.23;7.88;;;;;;;;;;5012259;28;20069;-63
2023/03/17 12:04:15;;;;;;;11.60;6.93;;;;;;;;;;4996923;28;20548;-63
2023/03/17 12:06:46;;;;;;;13.65;7.72;;;;;;;;;;4997164;28;20035;-63
2023/03/17 12:09:16;;;;;;;9.95;7.60;;;;;;;;;;4996852;28;20520;-63
2023/03/17 12:11:45;;;;;;;9.43;7.35;;;;;;;;;;4996802;28;20046;-63
2023/03/17 12:14:18;;;;;;;10.68;7.85;;;;;;;;;;4996872;28;20046;-63
2023/03/17 12:16:55;;;;;;;13.98;7.35;;;;;;;;;;4996823;28;20049;-63
2023/03/17 12:19:27;;;;;;;12.30;8.65;;;;;;;;;;4996723;28;20046;-63
2023/03/17 12:21:58;;;;;;;12.73;8.80;;;;;;;;;;5011636;28;20056;-63
2023/03/17 12:24:25;;;;;;;12.38;8.15;;;;;;;;;;4996838;28;20046;-63
2023/03/17 12:26:56;;;;;;;15.52;8.55;;;;;;;;;;4996792;28;20052;-63
2023/03/17 12:29:42;;;;;;;10.13;7.90;;;;;;;;;;4996639;28;20066;-63
2023/03/17 12:32:19;;;;;;;10.23;7.93;;;;;;;;;;4996582;28;20050;-63
2023/03/17 12:34:55;;;;;;;10.82;8.30;;;;;;;;;;4996757;28;20476;-63
2023/03/17 12:37:26;;;;;;;12.48;8.93;;;;;;;;;;4996476;28;20073;-63
2023/03/17 12:40:08;;;;;;;11.23;9.13;;;;;;;;;;4978927;28;20412;-63
2023/03/17 12:42:42;;;;;;;11.95;10.27;;;;;;;;;;4996514;28;20511;-63
2023/03/17 12:45:09;;;;;;;12.38;10.93;;;;;;;;;;4996564;28;20085;-63
2023/03/17 12:48:06;;;;;;;13.65;11.13;;;;;;;;;;4996138;28;20489;-63
2023/03/17 12:50:44;;;;;;;13.00;10.93;;;;;;;;;;4984391;28;20101;-63
2023/03/17 12:53:28;;;;;;;11.70;9.90;;;;;;;;;;4996228;28;20047;-63
2023/03/17 12:55:58;;;;;;;14.60;10.18;;;;;;;;;;4996256;28;20385;-63
2023/03/17 12:58:26;;;;;;;13.45;10.07;;;;;;;;;;4996070;28;20042;-63
2023/03/17 13:01:02;;;;;;;11.07;9.88;;;;;;;;;;4996167;28;20042;-63
2023/03/17 13:03:35;;;;;;;12.82;9.70;;;;;;;;;;4996007;28;20391;-63
2023/03/17 13:06:06;;;;;;;11.20;9.40;;;;;;;;;;4995856;28;20050;-63
2023/03/17 13:08:33;;;;;;;11.70;9.65;;;;;;;;;;4996052;28;20038;-63
2023/03/17 13:11:18;;;;;;;12.02;9.27;;;;;;;;;;5010882;28;20039;-63
2023/03/17 13:13:46;;;;;;;10.40;9.00;;;;;;;;;;4995781;28;20117;-63
2023/03/17 13:16:40;;;;;;;15.18;10.15;;;;;;;;;;5010418;28;20042;-63
2023/03/17 13:19:13;;;;;;;12.13;9.63;;;;;;;;;;4993339;28;20441;-63
2023/03/17 13:22:04;;;;;;;10.73;8.63;;;;;;;;;;5010739;28;20058;-63
2023/03/17 13:24:46;;;;;;;10.05;8.43;;;;;;;;;;4987975;28;20058;-63
2023/03/17 13:27:32;;;;;;;10.57;8.90;;;;;;;;;;4995171;28;20402;-63
2023/03/17 13:30:25;;;;;;;12.95;8.98;;;;;;;;;;4995141;28;20042;-63
2023/03/17 13:32:58;;;;;;;11.18;9.25;;;;;;;;;;4995048;28;20548;-63
2023/03/17 13:35:40;;;;;;;12.48;9.75;;;;;;;;;;4995139;28;20076;-63
2023/03/17 13:38:08;;;;;;;10.98;9.38;;;;;;;;;;4995402;28;20039;-63
2023/03/17 13:40:56;;;;;;;14.80;9.75;;;;;;;;;;4995252;28;20086;-63
2023/03/17 13:43:23;;;;;;;12.40;9.07;;;;;;;;;;4995180;28;20074;-63
2023/03/17 13:45:51;;;;;;;11.40;9.63;;;;;;;;;;4995038;28;20043;-63
2023/03/17 13:48:26;;;;;;;11.07;9.50;;;;;;;;;;4994852;28;20042;-63
2023/03/17 13:50:53;;;;;;;;;;;;;;;;;;4995568;28;20042;-63
2023/03/17 13:53:23;;;;;;;12.15;10.20;;;;;;;;;;4959993;28;20340;-63
2023/03/17 13:56:10;;;;;;;11.73;9.45;;;;;;;;;;4994847;28;20042;-66
2023/03/17 13:58:58;;;;;;;12.45;9.52;;;;;;;;;;4974044;28;20406;-66
2023/03/17 14:01:27;;;;;;;12.23;9.90;;;;;;;;;;4993700;28;20125;-67
2023/03/17 14:03:55;;;;;;;14.05;9.13;;;;;;;;;;4995035;28;20434;-65
2023/03/17 14:06:26;;;;;;;10.20;8.75;;;;;;;;;;4994890;28;20042;-66
2023/03/17 14:08:57;;;;;;;13.98;9.27;;;;;;;;;;4994816;28;20046;-66
2023/03/17 14:11:31;;;;;;;11.52;9.35;;;;;;;;;;4994704;28;20042;-66
2023/03/17 14:14:05;;;;;;;11.40;9.23;;;;;;;;;;4982679;28;20461;-66
2023/03/17 14:16:34;;;;;;;12.60;10.43;;;;;;;;;;5013962;28;20034;-66
2023/03/17 14:19:21;;;;;;;10.80;8.95;;;;;;;;;;5013402;28;20120;-67
2023/03/17 14:21:49;;;;;;;13.85;9.10;;;;;;;;;;5013972;28;20500;-66
2023/03/17 14:24:24;;;;;;;10.40;8.63;;;;;;;;;;5013980;28;20045;-66
2023/03/17 14:26:52;;;;;;;10.27;8.85;;;;;;;;;;4996669;28;20042;-66
2023/03/17 14:29:21;;;;;;;12.45;7.82;;;;;;;;;;5013776;28;20519;-66
2023/03/17 14:32:03;;;;;;;12.55;8.45;;;;;;;;;;5013907;28;20037;-66
2023/03/17 14:34:31;;;;;;;12.85;9.38;;;;;;;;;;5013874;28;20403;-68
2023/03/17 14:37:03;;;;;;;11.63;8.60;;;;;;;;;;5013802;28;20113;-68
2023/03/17 14:39:31;;;;;;;14.43;8.95;;;;;;;;;;5013771;28;20042;-69
2023/03/17 14:42:02;;;;;;;10.98;8.52;;;;;;;;;;5013856;28;20104;-68
2023/03/17 14:44:37;;;;;;;12.38;8.85;;;;;;;;;;5013597;28;20488;-69
2023/03/17 14:47:06;;;;;;;12.45;9.43;;;;;;;;;;5013511;28;20125;-68
2023/03/17 14:49:34;;;;;;;13.05;9.63;;;;;;;;;;5012300;28;20042;-69
2023/03/17 14:52:02;;;;;;;12.25;9.20;;;;;;;;;;5005961;28;20034;-69
2023/03/17 14:54:33;;;;;;;10.50;9.23;;;;;;;;;;5011552;28;20164;-68